createdAt,value
2023-02-09T00:00:12.349Z,97932.34
2023-02-09T00:02:44.682Z,97935.56
2023-02-09T00:05:13.809Z,97945.81
2023-02-09T00:07:42.644Z,97936.75
2023-02-09T00:10:11.629Z,97924.59
2023-02-09T00:12:58.380Z,97947.28
2023-02-09T00:15:28.143Z,97942.94
2023-02-09T00:17:57.387Z,97948.97
2023-02-09T00:20:25.808Z,97938.56
2023-02-09T00:22:54.536Z,97933.31
2023-02-09T00:25:24.430Z,97931.84
2023-02-09T00:27:53.303Z,97940.06
2023-02-09T00:30:22.141Z,97927.78
2023-02-09T00:32:52.787Z,97925.69
2023-02-09T00:35:22.065Z,97926.53
2023-02-09T00:37:50.442Z,97918.56
2023-02-09T00:40:21.508Z,97935.22
2023-02-09T00:42:49.881Z,97920.75
2023-02-09T00:45:19.305Z,97945.47
2023-02-09T00:47:47.663Z,97948.00
2023-02-09T00:50:18.537Z,97947.63
2023-02-09T00:52:46.907Z,97950.28
2023-02-09T00:55:17.538Z,97942.06
2023-02-09T00:57:45.948Z,97944.72
2023-02-09T01:00:16.801Z,97942.94
2023-02-09T01:02:46.101Z,97945.59
2023-02-09T01:05:15.366Z,97941.84
2023-02-09T01:07:47.460Z,97932.06
2023-02-09T01:10:16.349Z,97933.59
2023-02-09T01:12:45.512Z,97932.91
2023-02-09T01:15:14.605Z,97933.50
2023-02-09T01:17:45.616Z,97933.75
2023-02-09T01:20:14.647Z,97932.41
2023-02-09T01:22:44.283Z,97929.19
2023-02-09T01:25:13.962Z,97932.56
2023-02-09T01:27:44.124Z,97908.81
2023-02-09T01:30:13.974Z,97912.56
2023-02-09T01:32:42.358Z,97910.53
2023-02-09T01:35:12.301Z,97912.91
2023-02-09T01:37:41.967Z,97909.44
2023-02-09T01:40:12.284Z,97913.66
2023-02-09T01:42:42.493Z,97908.09
2023-02-09T01:45:29.994Z,97913.75
2023-02-09T01:48:02.708Z,97905.84
2023-02-09T01:50:35.480Z,97887.25
2023-02-09T01:53:05.170Z,97898.09
2023-02-09T01:55:38.153Z,97893.75
2023-02-09T01:58:11.392Z,97885.81
2023-02-09T02:00:40.386Z,97886.78
2023-02-09T02:03:12.656Z,97888.69
2023-02-09T02:05:45.737Z,97893.06
2023-02-09T02:08:20.256Z,97876.03
2023-02-09T02:10:49.128Z,97880.63
2023-02-09T02:13:19.373Z,97888.47
2023-02-09T02:16:04.076Z,97894.16
2023-02-09T02:18:50.907Z,97883.91
2023-02-09T02:21:43.915Z,97876.00
2023-02-09T02:24:33.624Z,97868.03
2023-02-09T02:27:05.653Z,97869.84
2023-02-09T02:30:07.274Z,97854.78
2023-02-09T02:32:46.972Z,97863.22
2023-02-09T02:35:21.245Z,97852.63
2023-02-09T02:38:01.203Z,97854.41
2023-02-09T02:40:42.200Z,97852.34
2023-02-09T02:43:23.634Z,97809.44
2023-02-09T02:46:00.018Z,97830.91
2023-02-09T02:48:36.913Z,97845.47
2023-02-09T02:51:10.140Z,97843.66
2023-02-09T02:53:43.973Z,97839.59
2023-02-09T02:56:18.951Z,97840.44
2023-02-09T02:58:50.212Z,97794.66
2023-02-09T03:01:24.859Z,97832.84
2023-02-09T03:03:56.300Z,97840.09
2023-02-09T03:06:25.825Z,97840.44
2023-02-09T03:08:56.623Z,97835.66
2023-02-09T03:11:30.150Z,97833.00
2023-02-09T03:14:18.076Z,97839.63
2023-02-09T03:16:48.723Z,97831.91
2023-02-09T03:19:36.628Z,97843.81
2023-02-09T03:22:10.590Z,97848.19
2023-02-09T03:24:46.885Z,97827.81
2023-02-09T03:27:20.003Z,97842.97
2023-02-09T03:29:52.952Z,97846.72
2023-02-09T03:32:24.588Z,97843.22
2023-02-09T03:34:55.510Z,97832.03
2023-02-09T03:37:24.924Z,97830.94
2023-02-09T03:39:53.358Z,97845.88
2023-02-09T03:42:22.238Z,97831.19
2023-02-09T03:44:52.225Z,97850.94
2023-02-09T03:47:20.608Z,97851.53
2023-02-09T03:49:49.786Z,97851.78
2023-02-09T03:52:19.584Z,97842.50
2023-02-09T03:54:49.282Z,97851.78
2023-02-09T03:57:17.739Z,97853.81
2023-02-09T03:59:46.894Z,97853.72
2023-02-09T04:02:16.049Z,97852.63
2023-02-09T04:04:45.075Z,97852.75
2023-02-09T04:07:13.934Z,97850.09
2023-02-09T04:09:43.706Z,97859.38
2023-02-09T04:12:12.874Z,97858.66
2023-02-09T04:14:41.242Z,97841.75
2023-02-09T04:17:10.338Z,97850.91
2023-02-09T04:19:38.688Z,97854.03
2023-02-09T04:22:08.405Z,97839.25
2023-02-09T04:24:37.261Z,97850.09
2023-02-09T04:27:07.155Z,97854.53
2023-02-09T04:29:36.220Z,97850.19
2023-02-09T04:32:04.913Z,97847.53
2023-02-09T04:34:34.969Z,97846.56
2023-02-09T04:37:03.310Z,97848.38
2023-02-09T04:39:31.692Z,97841.97
2023-02-09T04:42:01.210Z,97834.75
2023-02-09T04:44:31.577Z,97844.63
2023-02-09T04:46:59.987Z,97842.09
2023-02-09T04:49:28.872Z,97836.56
2023-02-09T04:51:57.262Z,97841.38
2023-02-09T04:54:27.248Z,97841.72
2023-02-09T04:57:18.013Z,97853.91
2023-02-09T04:59:47.094Z,97861.75
2023-02-09T05:02:15.497Z,97853.03
2023-02-09T05:04:44.805Z,97864.38
2023-02-09T05:07:13.315Z,97860.91
2023-02-09T05:09:42.347Z,97868.94
2023-02-09T05:12:12.319Z,97868.22
2023-02-09T05:14:41.167Z,97862.41
2023-02-09T05:17:10.868Z,97866.28
2023-02-09T05:19:40.113Z,97871.19
2023-02-09T05:22:08.493Z,97872.75
2023-02-09T05:24:38.371Z,97874.69
2023-02-09T05:27:06.804Z,97873.00
2023-02-09T05:29:36.158Z,97873.31
2023-02-09T05:32:05.740Z,97876.81
2023-02-09T05:34:35.496Z,97867.16
2023-02-09T05:37:04.731Z,97848.47
2023-02-09T05:39:33.748Z,97865.69
2023-02-09T05:42:17.367Z,97867.97
2023-02-09T05:44:47.469Z,97870.84
2023-02-09T05:47:17.510Z,97884.19
2023-02-09T05:49:48.519Z,97883.13
2023-02-09T05:52:17.989Z,97877.56
2023-02-09T05:54:48.472Z,97874.09
2023-02-09T05:57:19.054Z,97897.34
2023-02-09T05:59:47.529Z,97900.31
2023-02-09T06:02:17.512Z,97896.19
2023-02-09T06:04:47.737Z,97893.66
2023-02-09T06:07:16.583Z,97897.41
2023-02-09T06:09:45.012Z,97903.28
2023-02-09T06:12:14.488Z,97904.13
2023-02-09T06:14:43.387Z,97912.59
2023-02-09T06:17:11.779Z,97909.81
2023-02-09T06:19:41.063Z,97911.50
2023-02-09T06:22:10.816Z,97911.16
2023-02-09T06:24:40.754Z,97915.47
2023-02-09T06:27:09.517Z,97920.03
2023-02-09T06:29:37.886Z,97923.25
2023-02-09T06:32:06.759Z,97919.47
2023-02-09T06:34:35.247Z,97935.25
2023-02-09T06:37:03.996Z,97933.06
2023-02-09T06:39:33.775Z,97925.69
2023-02-09T06:42:02.532Z,97934.47
2023-02-09T06:44:30.868Z,97942.19
2023-02-09T06:47:00.044Z,97949.28
2023-02-09T06:49:28.389Z,97943.97
2023-02-09T06:51:57.434Z,97946.63
2023-02-09T06:54:28.818Z,97946.50
2023-02-09T06:56:58.557Z,97948.44
2023-02-09T06:59:27.492Z,97944.94
2023-02-09T07:01:55.908Z,97943.03
2023-02-09T07:04:24.404Z,97953.72
2023-02-09T07:06:53.525Z,97956.91
2023-02-09T07:09:21.890Z,97965.31
2023-02-09T07:11:51.233Z,97948.19
2023-02-09T07:14:21.031Z,97960.53
2023-02-09T07:16:49.522Z,97965.72
2023-02-09T07:19:19.143Z,97950.41
2023-02-09T07:21:48.623Z,97952.22
2023-02-09T07:24:17.039Z,97959.91
2023-02-09T07:26:46.260Z,97954.28
2023-02-09T07:29:15.014Z,97952.38
2023-02-09T07:31:45.369Z,97953.84
2023-02-09T07:34:13.833Z,97956.25
2023-02-09T07:36:43.029Z,97960.81
2023-02-09T07:39:11.917Z,97956.72
2023-02-09T07:41:40.577Z,97955.38
2023-02-09T07:44:10.504Z,97953.97
2023-02-09T07:46:38.992Z,97958.81
2023-02-09T07:49:09.574Z,97956.31
2023-02-09T07:51:38.329Z,97951.72
2023-02-09T07:54:09.604Z,97951.84
2023-02-09T07:56:39.470Z,97963.94
2023-02-09T07:59:08.349Z,97966.97
2023-02-09T08:01:37.245Z,97949.28
2023-02-09T08:04:05.838Z,97952.25
2023-02-09T08:06:42.901Z,97960.56
2023-02-09T08:09:12.938Z,97965.03
2023-02-09T08:11:46.026Z,97960.47
2023-02-09T08:14:18.977Z,97961.41
2023-02-09T08:16:50.506Z,97965.88
2023-02-09T08:19:23.434Z,97962.38
2023-02-09T08:21:53.361Z,97959.28
2023-02-09T08:24:23.344Z,97955.66
2023-02-09T08:26:51.728Z,97962.56
2023-02-09T08:29:21.004Z,97957.28
2023-02-09T08:31:49.961Z,97952.16
2023-02-09T08:34:18.364Z,97946.59
2023-02-09T08:36:48.336Z,97966.03
2023-02-09T08:39:18.059Z,97960.00
2023-02-09T08:41:46.565Z,97957.13
2023-02-09T08:44:14.968Z,97957.03
2023-02-09T08:46:44.443Z,97958.44
2023-02-09T08:49:13.127Z,97957.81
2023-02-09T08:51:43.140Z,97955.81
2023-02-09T08:54:11.506Z,97954.13
2023-02-09T08:56:43.286Z,97945.28
2023-02-09T08:59:12.958Z,97952.97
2023-02-09T09:01:42.396Z,97953.09
2023-02-09T09:04:11.682Z,97948.50
2023-02-09T09:06:40.102Z,97955.81
2023-02-09T09:09:09.401Z,97958.19
2023-02-09T09:11:38.212Z,97957.00
2023-02-09T09:14:08.785Z,97943.69
2023-02-09T09:16:38.031Z,97955.41
2023-02-09T09:19:06.725Z,97940.97
2023-02-09T09:21:36.609Z,97955.63
2023-02-09T09:24:06.087Z,97956.47
2023-02-09T09:26:35.106Z,97954.53
2023-02-09T09:29:04.728Z,97957.34
2023-02-09T09:31:34.555Z,97962.50
2023-02-09T09:34:03.507Z,97961.19
2023-02-09T09:36:33.908Z,97957.59
2023-02-09T09:39:02.557Z,97965.41
2023-02-09T09:41:34.991Z,97974.09
2023-02-09T09:44:04.512Z,97970.34
2023-02-09T09:46:38.592Z,97976.69
2023-02-09T09:49:07.436Z,97990.00
2023-02-09T09:51:42.162Z,97979.72
2023-02-09T09:54:17.095Z,97992.56
2023-02-09T09:56:46.483Z,97990.88
2023-02-09T09:59:18.984Z,97990.44
2023-02-09T10:01:51.946Z,97961.41
2023-02-09T10:04:21.461Z,97988.59
2023-02-09T10:06:59.583Z,97999.00
2023-02-09T10:09:37.248Z,97998.81
2023-02-09T10:12:19.363Z,97987.81
2023-02-09T10:14:47.733Z,97989.84
2023-02-09T10:17:18.447Z,97986.56
2023-02-09T10:20:01.921Z,97988.97
2023-02-09T10:22:31.863Z,97987.31
2023-02-09T10:25:00.698Z,97983.56
2023-02-09T10:27:33.026Z,97991.47
2023-02-09T10:30:18.374Z,97984.97
2023-02-09T10:32:49.447Z,97979.28
2023-02-09T10:35:26.831Z,97993.81
2023-02-09T10:38:02.017Z,97979.03
2023-02-09T10:40:32.678Z,97978.22
2023-02-09T10:43:03.967Z,97980.22
2023-02-09T10:45:40.599Z,97972.84
2023-02-09T10:48:19.812Z,97968.94
2023-02-09T10:50:54.155Z,97967.72
2023-02-09T10:53:27.260Z,97964.72
2023-02-09T10:56:02.683Z,97952.53
2023-02-09T10:58:33.857Z,97937.84
2023-02-09T11:01:19.095Z,97943.78
2023-02-09T11:04:01.289Z,97940.78
2023-02-09T11:06:37.579Z,97929.88
2023-02-09T11:09:13.318Z,97928.47
2023-02-09T11:11:44.513Z,97932.03
2023-02-09T11:14:15.176Z,97929.31
2023-02-09T11:16:55.172Z,97929.72
2023-02-09T11:19:48.009Z,97925.63
2023-02-09T11:22:28.831Z,97920.50
2023-02-09T11:25:12.134Z,97927.13
2023-02-09T11:27:56.498Z,97925.34
2023-02-09T11:30:43.577Z,97928.84
2023-02-09T11:33:21.553Z,97935.03
2023-02-09T11:36:08.736Z,97913.16
2023-02-09T11:38:43.676Z,97916.16
2023-02-09T11:41:36.663Z,97905.75
2023-02-09T11:44:11.044Z,97915.22
2023-02-09T11:46:40.929Z,97916.88
2023-02-09T11:49:18.585Z,97905.69
2023-02-09T11:51:51.262Z,97913.97
2023-02-09T11:54:24.453Z,97910.06
2023-02-09T11:57:00.697Z,97898.84
2023-02-09T11:59:34.359Z,97912.25
2023-02-09T12:02:11.504Z,97917.22
2023-02-09T12:04:45.407Z,97911.31
2023-02-09T12:07:22.612Z,97909.84
2023-02-09T12:09:56.743Z,97909.78
2023-02-09T12:12:33.311Z,97909.34
2023-02-09T12:15:12.754Z,97899.81
2023-02-09T12:17:47.578Z,97901.34
2023-02-09T12:20:27.673Z,97900.22
2023-02-09T12:23:07.894Z,97898.91
2023-02-09T12:25:52.225Z,97899.44
2023-02-09T12:28:43.793Z,97896.72
2023-02-09T12:31:22.857Z,97889.91
2023-02-09T12:34:28.262Z,97889.50
2023-02-09T12:37:20.545Z,97888.25
2023-02-09T12:40:18.268Z,97877.25
2023-02-09T12:43:04.027Z,97886.38
2023-02-09T12:45:36.645Z,97885.34
2023-02-09T12:48:14.496Z,97870.50
2023-02-09T12:50:50.344Z,97879.41
2023-02-09T12:53:47.270Z,97877.31
2023-02-09T12:56:30.577Z,97879.44
2023-02-09T12:59:23.756Z,97878.66
2023-02-09T13:02:16.332Z,97864.06
2023-02-09T13:04:58.038Z,97869.91
2023-02-09T13:07:39.878Z,97870.31
2023-02-09T13:10:17.993Z,97867.81
2023-02-09T13:12:54.290Z,97863.03
2023-02-09T13:15:22.681Z,97866.38
2023-02-09T13:18:06.209Z,97868.22
2023-02-09T13:21:11.288Z,97870.13
2023-02-09T13:23:51.791Z,97867.41
2023-02-09T13:26:23.535Z,97863.03
2023-02-09T13:29:19.756Z,97869.81
2023-02-09T13:32:00.326Z,97867.53
2023-02-09T13:34:37.581Z,97863.84
2023-02-09T13:37:19.901Z,97872.44
2023-02-09T13:39:57.374Z,97874.09
2023-02-09T13:42:27.719Z,97857.19
2023-02-09T13:45:01.359Z,97867.41
2023-02-09T13:47:30.769Z,97865.28
2023-02-09T13:50:01.357Z,97870.09
2023-02-09T13:52:36.924Z,97870.75
2023-02-09T13:55:13.466Z,97878.16
2023-02-09T13:57:46.047Z,97870.72
2023-02-09T14:00:24.729Z,97865.44
2023-02-09T14:02:56.937Z,97873.78
2023-02-09T14:05:39.490Z,97866.59
2023-02-09T14:08:09.633Z,97861.28
2023-02-09T14:10:38.753Z,97870.06
2023-02-09T14:13:16.438Z,97863.25
2023-02-09T14:16:06.291Z,97873.50
2023-02-09T14:18:48.106Z,97855.44
2023-02-09T14:21:22.084Z,97868.88
2023-02-09T14:24:05.611Z,97867.03
2023-02-09T14:26:38.186Z,97859.59
2023-02-09T14:29:18.011Z,97861.13
2023-02-09T14:31:51.384Z,97861.44
2023-02-09T14:34:35.327Z,97863.97
2023-02-09T14:37:25.974Z,97863.16
2023-02-09T14:39:55.533Z,97860.88
2023-02-09T14:42:25.317Z,97859.88
2023-02-09T14:44:55.395Z,97874.50
2023-02-09T14:47:32.647Z,97866.09
2023-02-09T14:50:01.685Z,97868.56
2023-02-09T14:52:33.103Z,97866.66
2023-02-09T14:55:06.758Z,97866.44
2023-02-09T14:57:37.455Z,97865.25
2023-02-09T15:00:18.949Z,97861.13
2023-02-09T15:02:49.442Z,97862.41
2023-02-09T15:05:20.007Z,97851.56
2023-02-09T15:07:52.003Z,97861.97
2023-02-09T15:10:27.715Z,97859.09
2023-02-09T15:12:57.133Z,97854.69
2023-02-09T15:15:28.077Z,97860.72
2023-02-09T15:17:59.679Z,97865.28
2023-02-09T15:20:31.845Z,97861.88
2023-02-09T15:23:01.271Z,97855.16
2023-02-09T15:25:30.475Z,97859.53
2023-02-09T15:28:01.528Z,97859.72
2023-02-09T15:30:33.461Z,97857.56
2023-02-09T15:33:04.066Z,97855.34
2023-02-09T15:35:33.486Z,97859.81
2023-02-09T15:38:02.764Z,97869.94
2023-02-09T15:40:52.329Z,97871.47
2023-02-09T15:43:40.170Z,97866.97
2023-02-09T15:46:27.980Z,97874.13
2023-02-09T15:48:58.379Z,97871.56
2023-02-09T15:51:32.308Z,97879.59
2023-02-09T15:54:03.567Z,97862.31
2023-02-09T15:56:33.077Z,97870.41
2023-02-09T15:59:03.912Z,97870.13
2023-02-09T16:01:34.552Z,97865.97
2023-02-09T16:04:14.801Z,97867.72
2023-02-09T16:06:47.876Z,97872.47
2023-02-09T16:09:20.339Z,97875.81
2023-02-09T16:11:49.624Z,97838.88
2023-02-09T16:14:20.436Z,97877.09
2023-02-09T16:16:51.344Z,97879.94
2023-02-09T16:19:21.673Z,97876.63
2023-02-09T16:21:55.455Z,97884.50
2023-02-09T16:24:32.490Z,97891.63
2023-02-09T16:27:02.296Z,97892.19
2023-02-09T16:29:30.764Z,97891.88
2023-02-09T16:32:00.126Z,97902.63
2023-02-09T16:34:29.866Z,97907.69
2023-02-09T16:36:59.255Z,97914.13
2023-02-09T16:39:27.696Z,97910.66
2023-02-09T16:41:57.673Z,97914.22
2023-02-09T16:44:29.284Z,97903.84
2023-02-09T16:47:01.394Z,97911.06
2023-02-09T16:49:37.581Z,97917.09
2023-02-09T16:52:14.944Z,97918.81
2023-02-09T16:54:45.842Z,97926.69
2023-02-09T16:57:16.417Z,97928.03
2023-02-09T16:59:45.492Z,97925.16
2023-02-09T17:02:30.747Z,97890.09
2023-02-09T17:05:03.539Z,97937.91
2023-02-09T17:07:48.850Z,97936.56
2023-02-09T17:10:26.457Z,97942.53
2023-02-09T17:12:54.810Z,97939.47
2023-02-09T17:15:31.409Z,97942.53
2023-02-09T17:18:03.087Z,97947.06
2023-02-09T17:20:37.848Z,97950.56
2023-02-09T17:23:08.081Z,97956.56
2023-02-09T17:25:36.535Z,97958.59
2023-02-09T17:28:06.075Z,97960.25
2023-02-09T17:30:35.532Z,97964.75
2023-02-09T17:33:07.740Z,97972.59
2023-02-09T17:36:17.525Z,97966.69
2023-02-09T17:38:33.030Z,97955.75
2023-02-09T17:41:03.564Z,97967.97
2023-02-09T17:43:33.165Z,97968.75
2023-02-09T17:46:02.129Z,97967.69
2023-02-09T17:48:30.551Z,97964.19
2023-02-09T17:53:50.243Z,97963.97
2023-02-09T17:56:19.329Z,97963.63
2023-02-09T17:58:49.257Z,97973.34
2023-02-09T18:01:26.499Z,97979.72
2023-02-09T18:03:56.943Z,97981.69
2023-02-09T18:06:34.273Z,97974.81
2023-02-09T18:09:07.210Z,97972.75
2023-02-09T18:11:59.639Z,97979.94
2023-02-09T18:14:29.285Z,97976.38
2023-02-09T18:16:58.400Z,97973.31
2023-02-09T18:19:27.758Z,97969.47
2023-02-09T18:21:59.306Z,97984.34
2023-02-09T18:24:30.529Z,97983.81
2023-02-09T18:26:59.909Z,97991.94
2023-02-09T18:29:30.623Z,97993.44
2023-02-09T18:32:00.299Z,97994.44
2023-02-09T18:34:29.828Z,97997.59
2023-02-09T18:36:59.754Z,97987.81
2023-02-09T18:39:28.169Z,97977.03
2023-02-09T18:41:57.761Z,97982.56
2023-02-09T18:44:29.142Z,97993.41
2023-02-09T18:47:00.918Z,97996.41
2023-02-09T18:49:29.575Z,98002.03
2023-02-09T18:51:59.555Z,97996.16
2023-02-09T18:54:29.150Z,98002.81
2023-02-09T18:56:57.727Z,97994.88
2023-02-09T18:59:29.867Z,98010.31
2023-02-09T19:01:58.906Z,98003.88
2023-02-09T19:04:27.885Z,98007.78
2023-02-09T19:06:56.276Z,98002.19
2023-02-09T19:09:26.684Z,98011.28
2023-02-09T19:11:55.272Z,98011.44
2023-02-09T19:14:39.345Z,98018.94
2023-02-09T19:17:09.983Z,98022.06
2023-02-09T19:19:38.984Z,98017.31
2023-02-09T19:22:07.579Z,98011.13
2023-02-09T19:24:38.217Z,98013.28
2023-02-09T19:27:09.237Z,98019.06
2023-02-09T19:29:41.525Z,98025.59
2023-02-09T19:32:10.791Z,98016.97
2023-02-09T19:34:41.017Z,98014.03
2023-02-09T19:37:11.965Z,98017.63
2023-02-09T19:39:41.710Z,98014.66
2023-02-09T19:42:11.021Z,98017.47
2023-02-09T19:44:39.516Z,98010.63
2023-02-09T19:47:08.960Z,98013.88
2023-02-09T19:49:38.845Z,98013.03
2023-02-09T19:52:08.554Z,98015.03
2023-02-09T19:54:36.952Z,98028.81
2023-02-09T19:57:06.770Z,98028.56
2023-02-09T19:59:38.055Z,98033.38
2023-02-09T20:02:06.633Z,98015.69
2023-02-09T20:04:36.494Z,98034.94
2023-02-09T20:07:05.093Z,98038.06
2023-02-09T20:09:33.728Z,98034.28
2023-02-09T20:12:02.064Z,98044.28
2023-02-09T20:14:33.586Z,98043.72
2023-02-09T20:17:02.332Z,98043.28
2023-02-09T20:19:31.387Z,98040.38
2023-02-09T20:21:59.753Z,98029.84
2023-02-09T20:24:28.542Z,98038.69
2023-02-09T20:26:57.454Z,98038.28
2023-02-09T20:29:25.841Z,98041.41
2023-02-09T20:31:56.052Z,98039.00
2023-02-09T20:34:24.512Z,98042.97
2023-02-09T20:36:54.374Z,98053.06
2023-02-09T20:39:23.846Z,98061.63
2023-02-09T20:42:14.795Z,98054.75
2023-02-09T20:45:01.023Z,98050.72
2023-02-09T20:47:30.841Z,98054.63
2023-02-09T20:50:00.882Z,98049.72
2023-02-09T20:52:29.806Z,98065.72
2023-02-09T20:54:58.764Z,98076.69
2023-02-09T20:57:30.697Z,98071.50
2023-02-09T20:59:59.596Z,98070.22
2023-02-09T21:02:30.706Z,98071.47
2023-02-09T21:04:59.491Z,98074.44
2023-02-09T21:07:28.398Z,98068.50
2023-02-09T21:09:56.971Z,98071.47
2023-02-09T21:12:26.238Z,98068.94
2023-02-09T21:14:56.498Z,98074.00
2023-02-09T21:17:25.376Z,98075.81
2023-02-09T21:19:55.489Z,98088.72
2023-02-09T21:22:23.829Z,98084.06
2023-02-09T21:24:52.640Z,98077.06
2023-02-09T21:27:21.349Z,98074.69
2023-02-09T21:29:50.080Z,98069.75
2023-02-09T21:32:19.150Z,98075.09
2023-02-09T21:34:47.643Z,98063.88
2023-02-09T21:37:18.498Z,98073.69
2023-02-09T21:39:46.884Z,98077.44
2023-02-09T21:42:28.890Z,98066.34
2023-02-09T21:44:57.540Z,98062.81
2023-02-09T21:47:28.949Z,98053.16
2023-02-09T21:49:57.603Z,98062.66
2023-02-09T21:52:29.336Z,98034.72
2023-02-09T21:54:57.746Z,98034.69
2023-02-09T21:57:28.048Z,98051.53
2023-02-09T21:59:56.768Z,98047.44
2023-02-09T22:02:27.816Z,98062.03
2023-02-09T22:04:56.424Z,98068.34
2023-02-09T22:07:25.332Z,98063.88
2023-02-09T22:09:56.293Z,98071.56
2023-02-09T22:12:24.731Z,98065.53
2023-02-09T22:14:53.578Z,98083.91
2023-02-09T22:17:21.998Z,98082.75
2023-02-09T22:19:52.009Z,98081.59
2023-02-09T22:22:20.342Z,98090.34
2023-02-09T22:24:49.607Z,98083.72
2023-02-09T22:27:20.305Z,98080.91
2023-02-09T22:29:48.656Z,98063.06
2023-02-09T22:32:17.511Z,98066.41
2023-02-09T22:34:45.886Z,98017.63
2023-02-09T22:37:14.900Z,98075.91
2023-02-09T22:39:44.914Z,98062.13
2023-02-09T22:42:13.799Z,98066.47
2023-02-09T22:44:43.580Z,98071.94
2023-02-09T22:47:13.081Z,98081.34
2023-02-09T22:49:41.660Z,98085.09
2023-02-09T22:52:10.817Z,98080.50
2023-02-09T22:54:39.294Z,98088.50
2023-02-09T22:57:07.707Z,98098.28
2023-02-09T22:59:37.398Z,98090.28
2023-02-09T23:02:07.296Z,98092.84
2023-02-09T23:04:36.201Z,98090.28
2023-02-09T23:07:05.138Z,98100.25
2023-02-09T23:09:34.004Z,98090.56
2023-02-09T23:12:02.891Z,98091.28
2023-02-09T23:14:31.261Z,98082.72
2023-02-09T23:17:00.985Z,98085.06
2023-02-09T23:19:30.940Z,98094.88
2023-02-09T23:21:59.814Z,98093.88
2023-02-09T23:24:28.270Z,98099.34
2023-02-09T23:26:57.795Z,98106.72
2023-02-09T23:29:26.249Z,98112.13
2023-02-09T23:31:55.476Z,98104.88
2023-02-09T23:34:24.290Z,98105.25
2023-02-09T23:36:53.993Z,98116.16
2023-02-09T23:39:25.712Z,98116.88
2023-02-09T23:41:54.190Z,98126.66
2023-02-09T23:44:23.076Z,98126.66
2023-02-09T23:46:51.531Z,98133.59
2023-02-09T23:49:20.282Z,98132.91
2023-02-09T23:51:48.598Z,98134.13
2023-02-09T23:54:19.989Z,98143.06
2023-02-09T23:56:50.547Z,98141.88
2023-02-09T23:59:18.895Z,98146.09
